sensor_id;sensor_type;location;lat;lon;timestamp;P1;durP1;ratioP1;P2;durP2;ratioP2
46721;SDS011;32455;43.430;23.136;2023-06-14T00:00:18;7.18;;;4.72;;
46721;SDS011;32455;43.430;23.136;2023-06-14T00:03:03;8.57;;;4.35;;
46721;SDS011;32455;43.430;23.136;2023-06-14T00:05:48;6.85;;;4.22;;
46721;SDS011;32455;43.430;23.136;2023-06-14T00:08:34;7.22;;;4.50;;
46721;SDS011;32455;43.430;23.136;2023-06-14T00:11:19;8.63;;;4.70;;
46721;SDS011;32455;43.430;23.136;2023-06-14T00:14:05;6.43;;;4.32;;
46721;SDS011;32455;43.430;23.136;2023-06-14T00:16:50;7.47;;;4.57;;
46721;SDS011;32455;43.430;23.136;2023-06-14T00:19:37;9.18;;;5.10;;
46721;SDS011;32455;43.430;23.136;2023-06-14T00:22:23;9.07;;;4.85;;
46721;SDS011;32455;43.430;23.136;2023-06-14T00:25:09;9.18;;;4.93;;
46721;SDS011;32455;43.430;23.136;2023-06-14T00:27:54;5.05;;;4.45;;
46721;SDS011;32455;43.430;23.136;2023-06-14T00:30:39;10.82;;;4.70;;
46721;SDS011;32455;43.430;23.136;2023-06-14T00:33:25;10.95;;;4.60;;
46721;SDS011;32455;43.430;23.136;2023-06-14T00:36:10;7.55;;;4.70;;
46721;SDS011;32455;43.430;23.136;2023-06-14T00:38:56;8.20;;;4.43;;
46721;SDS011;32455;43.430;23.136;2023-06-14T00:41:42;9.82;;;4.47;;
46721;SDS011;32455;43.430;23.136;2023-06-14T00:44:27;9.10;;;5.18;;
46721;SDS011;32455;43.430;23.136;2023-06-14T00:47:12;9.32;;;5.00;;
46721;SDS011;32455;43.430;23.136;2023-06-14T00:49:58;9.63;;;4.95;;
46721;SDS011;32455;43.430;23.136;2023-06-14T00:52:45;9.40;;;4.85;;
46721;SDS011;32455;43.430;23.136;2023-06-14T00:55:30;5.60;;;4.35;;
46721;SDS011;32455;43.430;23.136;2023-06-14T00:58:17;5.13;;;4.30;;
46721;SDS011;32455;43.430;23.136;2023-06-14T01:01:03;7.95;;;5.20;;
46721;SDS011;32455;43.430;23.136;2023-06-14T01:03:49;10.50;;;5.30;;
46721;SDS011;32455;43.430;23.136;2023-06-14T01:06:41;10.13;;;4.47;;
46721;SDS011;32455;43.430;23.136;2023-06-14T01:09:48;5.57;;;4.70;;
46721;SDS011;32455;43.430;23.136;2023-06-14T01:16:03;5.18;;;4.68;;
46721;SDS011;32455;43.430;23.136;2023-06-14T01:18:51;7.22;;;5.03;;
46721;SDS011;32455;43.430;23.136;2023-06-14T01:21:40;8.07;;;4.97;;
46721;SDS011;32455;43.430;23.136;2023-06-14T01:24:26;6.15;;;4.82;;
46721;SDS011;32455;43.430;23.136;2023-06-14T01:27:16;11.98;;;4.60;;
46721;SDS011;32455;43.430;23.136;2023-06-14T01:30:03;9.55;;;4.57;;
46721;SDS011;32455;43.430;23.136;2023-06-14T01:32:49;11.40;;;4.82;;
46721;SDS011;32455;43.430;23.136;2023-06-14T01:35:37;11.57;;;4.78;;
46721;SDS011;32455;43.430;23.136;2023-06-14T01:38:23;11.48;;;4.35;;
46721;SDS011;32455;43.430;23.136;2023-06-14T01:41:10;17.77;;;6.47;;
46721;SDS011;32455;43.430;23.136;2023-06-14T01:43:57;9.13;;;4.78;;
46721;SDS011;32455;43.430;23.136;2023-06-14T01:46:43;6.68;;;4.65;;
46721;SDS011;32455;43.430;23.136;2023-06-14T01:49:32;8.38;;;4.43;;
46721;SDS011;32455;43.430;23.136;2023-06-14T01:52:19;10.82;;;4.40;;
46721;SDS011;32455;43.430;23.136;2023-06-14T01:55:06;5.70;;;4.32;;
46721;SDS011;32455;43.430;23.136;2023-06-14T01:57:53;8.23;;;4.90;;
46721;SDS011;32455;43.430;23.136;2023-06-14T02:00:39;10.77;;;5.25;;
46721;SDS011;32455;43.430;23.136;2023-06-14T02:03:24;7.18;;;4.72;;
46721;SDS011;32455;43.430;23.136;2023-06-14T02:06:10;13.25;;;4.47;;
46721;SDS011;32455;43.430;23.136;2023-06-14T02:08:57;7.78;;;4.05;;
46721;SDS011;32455;43.430;23.136;2023-06-14T02:11:42;4.88;;;3.85;;
46721;SDS011;32455;43.430;23.136;2023-06-14T02:14:27;6.10;;;4.10;;
46721;SDS011;32455;43.430;23.136;2023-06-14T02:17:13;7.57;;;5.10;;
46721;SDS011;32455;43.430;23.136;2023-06-14T02:19:58;8.48;;;4.53;;
46721;SDS011;32455;43.430;23.136;2023-06-14T02:22:44;9.60;;;4.97;;
46721;SDS011;32455;43.430;23.136;2023-06-14T02:25:30;8.48;;;4.85;;
46721;SDS011;32455;43.430;23.136;2023-06-14T02:28:15;7.53;;;4.32;;
46721;SDS011;32455;43.430;23.136;2023-06-14T02:31:00;10.18;;;4.88;;
46721;SDS011;32455;43.430;23.136;2023-06-14T02:33:45;5.65;;;4.65;;
46721;SDS011;32455;43.430;23.136;2023-06-14T02:36:31;8.63;;;4.90;;
46721;SDS011;32455;43.430;23.136;2023-06-14T02:39:16;5.32;;;4.55;;
46721;SDS011;32455;43.430;23.136;2023-06-14T02:42:02;12.38;;;4.95;;
46721;SDS011;32455;43.430;23.136;2023-06-14T02:44:48;6.82;;;4.53;;
46721;SDS011;32455;43.430;23.136;2023-06-14T02:47:35;6.00;;;4.95;;
46721;SDS011;32455;43.430;23.136;2023-06-14T02:50:20;5.38;;;4.63;;
46721;SDS011;32455;43.430;23.136;2023-06-14T02:53:06;7.00;;;4.65;;
46721;SDS011;32455;43.430;23.136;2023-06-14T02:55:51;6.03;;;4.50;;
46721;SDS011;32455;43.430;23.136;2023-06-14T02:58:37;6.45;;;4.47;;
46721;SDS011;32455;43.430;23.136;2023-06-14T03:01:25;5.05;;;4.47;;
46721;SDS011;32455;43.430;23.136;2023-06-14T03:04:19;6.97;;;4.95;;
46721;SDS011;32455;43.430;23.136;2023-06-14T03:07:04;9.90;;;4.57;;
46721;SDS011;32455;43.430;23.136;2023-06-14T03:09:56;9.52;;;4.68;;
46721;SDS011;32455;43.430;23.136;2023-06-14T03:12:42;9.30;;;4.75;;
46721;SDS011;32455;43.430;23.136;2023-06-14T03:15:26;11.65;;;4.57;;
46721;SDS011;32455;43.430;23.136;2023-06-14T03:18:12;8.70;;;4.30;;
46721;SDS011;32455;43.430;23.136;2023-06-14T03:20:59;10.30;;;4.78;;
46721;SDS011;32455;43.430;23.136;2023-06-14T03:23:44;7.05;;;4.60;;
46721;SDS011;32455;43.430;23.136;2023-06-14T03:26:30;8.13;;;4.97;;
46721;SDS011;32455;43.430;23.136;2023-06-14T03:29:16;7.25;;;4.88;;
46721;SDS011;32455;43.430;23.136;2023-06-14T03:32:02;5.90;;;4.07;;
46721;SDS011;32455;43.430;23.136;2023-06-14T03:34:48;6.05;;;4.93;;
46721;SDS011;32455;43.430;23.136;2023-06-14T03:37:33;7.55;;;5.10;;
46721;SDS011;32455;43.430;23.136;2023-06-14T03:40:20;5.82;;;4.60;;
46721;SDS011;32455;43.430;23.136;2023-06-14T03:43:06;8.80;;;4.97;;
46721;SDS011;32455;43.430;23.136;2023-06-14T03:45:51;8.45;;;5.40;;
46721;SDS011;32455;43.430;23.136;2023-06-14T03:48:37;7.35;;;5.25;;
46721;SDS011;32455;43.430;23.136;2023-06-14T03:51:23;7.15;;;5.55;;
46721;SDS011;32455;43.430;23.136;2023-06-14T03:54:10;5.72;;;5.07;;
46721;SDS011;32455;43.430;23.136;2023-06-14T03:56:55;6.60;;;4.35;;
46721;SDS011;32455;43.430;23.136;2023-06-14T03:59:41;10.70;;;4.88;;
46721;SDS011;32455;43.430;23.136;2023-06-14T04:02:26;5.78;;;5.07;;
46721;SDS011;32455;43.430;23.136;2023-06-14T04:05:14;7.65;;;5.40;;
46721;SDS011;32455;43.430;23.136;2023-06-14T04:08:00;9.20;;;6.13;;
46721;SDS011;32455;43.430;23.136;2023-06-14T04:10:46;7.22;;;5.68;;
46721;SDS011;32455;43.430;23.136;2023-06-14T04:13:31;11.18;;;5.47;;
46721;SDS011;32455;43.430;23.136;2023-06-14T04:16:17;6.28;;;5.60;;
46721;SDS011;32455;43.430;23.136;2023-06-14T04:19:02;6.72;;;5.15;;
46721;SDS011;32455;43.430;23.136;2023-06-14T04:21:48;6.97;;;5.88;;
46721;SDS011;32455;43.430;23.136;2023-06-14T04:24:33;8.60;;;5.45;;
46721;SDS011;32455;43.430;23.136;2023-06-14T04:27:19;6.72;;;5.70;;
46721;SDS011;32455;43.430;23.136;2023-06-14T04:30:06;6.82;;;6.10;;
46721;SDS011;32455;43.430;23.136;2023-06-14T04:32:52;7.85;;;5.72;;
46721;SDS011;32455;43.430;23.136;2023-06-14T04:35:39;6.50;;;5.80;;
46721;SDS011;32455;43.430;23.136;2023-06-14T04:38:25;7.30;;;6.25;;
46721;SDS011;32455;43.430;23.136;2023-06-14T04:41:13;11.77;;;7.53;;
46721;SDS011;32455;43.430;23.136;2023-06-14T04:43:58;9.10;;;6.13;;
46721;SDS011;32455;43.430;23.136;2023-06-14T04:46:46;7.53;;;6.50;;
46721;SDS011;32455;43.430;23.136;2023-06-14T04:49:32;6.80;;;6.10;;
46721;SDS011;32455;43.430;23.136;2023-06-14T04:52:18;7.68;;;6.45;;
46721;SDS011;32455;43.430;23.136;2023-06-14T04:55:05;7.97;;;6.00;;
46721;SDS011;32455;43.430;23.136;2023-06-14T04:57:50;6.63;;;6.03;;
46721;SDS011;32455;43.430;23.136;2023-06-14T05:00:37;10.35;;;6.43;;
46721;SDS011;32455;43.430;23.136;2023-06-14T05:03:23;7.95;;;7.15;;
46721;SDS011;32455;43.430;23.136;2023-06-14T05:06:09;9.57;;;7.60;;
46721;SDS011;32455;43.430;23.136;2023-06-14T05:08:54;9.70;;;8.13;;
46721;SDS011;32455;43.430;23.136;2023-06-14T05:11:40;6.28;;;5.63;;
46721;SDS011;32455;43.430;23.136;2023-06-14T05:14:28;7.35;;;6.00;;
46721;SDS011;32455;43.430;23.136;2023-06-14T05:17:13;9.00;;;5.45;;
46721;SDS011;32455;43.430;23.136;2023-06-14T05:19:59;6.97;;;5.65;;
46721;SDS011;32455;43.430;23.136;2023-06-14T05:22:44;6.78;;;5.93;;
46721;SDS011;32455;43.430;23.136;2023-06-14T05:25:30;10.70;;;6.15;;
46721;SDS011;32455;43.430;23.136;2023-06-14T05:28:15;8.43;;;6.03;;
46721;SDS011;32455;43.430;23.136;2023-06-14T05:31:01;8.65;;;6.30;;
46721;SDS011;32455;43.430;23.136;2023-06-14T05:33:46;7.60;;;6.63;;
46721;SDS011;32455;43.430;23.136;2023-06-14T05:36:31;8.20;;;6.45;;
46721;SDS011;32455;43.430;23.136;2023-06-14T05:39:16;8.07;;;6.55;;
46721;SDS011;32455;43.430;23.136;2023-06-14T05:42:02;9.45;;;5.70;;
46721;SDS011;32455;43.430;23.136;2023-06-14T05:44:47;7.53;;;6.13;;
46721;SDS011;32455;43.430;23.136;2023-06-14T05:47:33;8.95;;;6.53;;
46721;SDS011;32455;43.430;23.136;2023-06-14T05:50:18;6.68;;;5.78;;
46721;SDS011;32455;43.430;23.136;2023-06-14T05:53:03;6.10;;;5.50;;
46721;SDS011;32455;43.430;23.136;2023-06-14T05:55:49;6.68;;;5.97;;
46721;SDS011;32455;43.430;23.136;2023-06-14T05:58:39;6.50;;;5.63;;
46721;SDS011;32455;43.430;23.136;2023-06-14T06:01:25;6.15;;;5.53;;
46721;SDS011;32455;43.430;23.136;2023-06-14T06:04:11;6.47;;;5.78;;
46721;SDS011;32455;43.430;23.136;2023-06-14T06:06:56;6.43;;;5.78;;
46721;SDS011;32455;43.430;23.136;2023-06-14T06:09:42;7.70;;;5.50;;
46721;SDS011;32455;43.430;23.136;2023-06-14T06:12:27;9.10;;;5.93;;
46721;SDS011;32455;43.430;23.136;2023-06-14T06:15:13;7.53;;;6.22;;
46721;SDS011;32455;43.430;23.136;2023-06-14T06:17:59;7.20;;;5.82;;
46721;SDS011;32455;43.430;23.136;2023-06-14T06:20:44;7.25;;;6.22;;
46721;SDS011;32455;43.430;23.136;2023-06-14T06:23:31;7.85;;;5.90;;
46721;SDS011;32455;43.430;23.136;2023-06-14T06:26:17;6.57;;;5.40;;
46721;SDS011;32455;43.430;23.136;2023-06-14T06:29:01;7.47;;;6.05;;
46721;SDS011;32455;43.430;23.136;2023-06-14T06:31:47;8.98;;;6.03;;
46721;SDS011;32455;43.430;23.136;2023-06-14T06:34:33;6.82;;;6.07;;
46721;SDS011;32455;43.430;23.136;2023-06-14T06:37:19;10.27;;;6.38;;
46721;SDS011;32455;43.430;23.136;2023-06-14T06:40:04;9.10;;;6.60;;
46721;SDS011;32455;43.430;23.136;2023-06-14T06:42:50;8.55;;;5.50;;
46721;SDS011;32455;43.430;23.136;2023-06-14T06:45:36;10.60;;;6.13;;
46721;SDS011;32455;43.430;23.136;2023-06-14T06:48:21;6.10;;;4.93;;
46721;SDS011;32455;43.430;23.136;2023-06-14T06:51:06;5.90;;;5.05;;
46721;SDS011;32455;43.430;23.136;2023-06-14T06:53:55;5.47;;;4.88;;
46721;SDS011;32455;43.430;23.136;2023-06-14T06:56:40;9.63;;;5.40;;
46721;SDS011;32455;43.430;23.136;2023-06-14T06:59:25;5.75;;;5.07;;
46721;SDS011;32455;43.430;23.136;2023-06-14T07:02:10;6.00;;;5.40;;
46721;SDS011;32455;43.430;23.136;2023-06-14T07:04:56;7.72;;;5.10;;
46721;SDS011;32455;43.430;23.136;2023-06-14T07:07:41;5.07;;;4.57;;
46721;SDS011;32455;43.430;23.136;2023-06-14T07:10:26;6.65;;;5.38;;
46721;SDS011;32455;43.430;23.136;2023-06-14T07:13:12;6.85;;;4.78;;
46721;SDS011;32455;43.430;23.136;2023-06-14T07:15:58;3.85;;;3.20;;
46721;SDS011;32455;43.430;23.136;2023-06-14T07:18:45;3.85;;;3.50;;
46721;SDS011;32455;43.430;23.136;2023-06-14T07:21:30;6.32;;;4.43;;
46721;SDS011;32455;43.430;23.136;2023-06-14T07:24:16;6.35;;;5.15;;
46721;SDS011;32455;43.430;23.136;2023-06-14T07:27:02;8.15;;;5.20;;
46721;SDS011;32455;43.430;23.136;2023-06-14T07:29:48;6.93;;;5.43;;
46721;SDS011;32455;43.430;23.136;2023-06-14T07:32:33;5.90;;;4.72;;
46721;SDS011;32455;43.430;23.136;2023-06-14T07:35:19;8.05;;;4.57;;
46721;SDS011;32455;43.430;23.136;2023-06-14T07:38:06;6.97;;;4.40;;
46721;SDS011;32455;43.430;23.136;2023-06-14T07:40:52;4.30;;;3.67;;
46721;SDS011;32455;43.430;23.136;2023-06-14T07:43:37;4.22;;;3.83;;
46721;SDS011;32455;43.430;23.136;2023-06-14T07:46:23;4.50;;;4.10;;
46721;SDS011;32455;43.430;23.136;2023-06-14T07:49:08;4.47;;;3.90;;
46721;SDS011;32455;43.430;23.136;2023-06-14T07:51:54;3.75;;;3.30;;
46721;SDS011;32455;43.430;23.136;2023-06-14T07:54:40;3.83;;;3.45;;
46721;SDS011;32455;43.430;23.136;2023-06-14T07:57:25;6.22;;;4.03;;
46721;SDS011;32455;43.430;23.136;2023-06-14T08:00:11;8.25;;;4.40;;
46721;SDS011;32455;43.430;23.136;2023-06-14T08:03:00;4.45;;;3.80;;
46721;SDS011;32455;43.430;23.136;2023-06-14T08:05:45;6.38;;;4.32;;
46721;SDS011;32455;43.430;23.136;2023-06-14T08:08:30;4.53;;;3.88;;
46721;SDS011;32455;43.430;23.136;2023-06-14T08:11:14;5.95;;;4.50;;
46721;SDS011;32455;43.430;23.136;2023-06-14T08:14:00;4.85;;;4.30;;
46721;SDS011;32455;43.430;23.136;2023-06-14T08:16:45;5.28;;;4.57;;
46721;SDS011;32455;43.430;23.136;2023-06-14T08:19:31;6.95;;;4.30;;
46721;SDS011;32455;43.430;23.136;2023-06-14T08:22:16;4.63;;;4.18;;
46721;SDS011;32455;43.430;23.136;2023-06-14T08:25:03;4.40;;;3.95;;
46721;SDS011;32455;43.430;23.136;2023-06-14T08:27:49;4.53;;;3.40;;
46721;SDS011;32455;43.430;23.136;2023-06-14T08:30:34;4.20;;;3.65;;
46721;SDS011;32455;43.430;23.136;2023-06-14T08:33:20;5.15;;;4.35;;
46721;SDS011;32455;43.430;23.136;2023-06-14T08:36:05;5.20;;;4.40;;
46721;SDS011;32455;43.430;23.136;2023-06-14T08:38:51;5.13;;;4.45;;
46721;SDS011;32455;43.430;23.136;2023-06-14T08:41:37;5.25;;;3.53;;
46721;SDS011;32455;43.430;23.136;2023-06-14T08:44:22;4.65;;;3.88;;
46721;SDS011;32455;43.430;23.136;2023-06-14T08:47:08;4.40;;;4.00;;
46721;SDS011;32455;43.430;23.136;2023-06-14T08:49:55;4.22;;;3.83;;
46721;SDS011;32455;43.430;23.136;2023-06-14T08:52:41;4.47;;;4.05;;
46721;SDS011;32455;43.430;23.136;2023-06-14T08:55:34;4.38;;;3.95;;
46721;SDS011;32455;43.430;23.136;2023-06-14T08:58:23;4.03;;;3.63;;
46721;SDS011;32455;43.430;23.136;2023-06-14T09:01:09;5.85;;;3.50;;
46721;SDS011;32455;43.430;23.136;2023-06-14T09:03:56;4.35;;;3.80;;
46721;SDS011;32455;43.430;23.136;2023-06-14T09:06:42;3.78;;;3.47;;
46721;SDS011;32455;43.430;23.136;2023-06-14T09:09:28;4.40;;;3.78;;
46721;SDS011;32455;43.430;23.136;2023-06-14T09:12:14;4.05;;;3.47;;
46721;SDS011;32455;43.430;23.136;2023-06-14T09:14:59;3.70;;;3.40;;
46721;SDS011;32455;43.430;23.136;2023-06-14T09:17:45;3.22;;;2.92;;
46721;SDS011;32455;43.430;23.136;2023-06-14T09:20:30;2.65;;;2.45;;
46721;SDS011;32455;43.430;23.136;2023-06-14T09:23:20;2.97;;;2.67;;
46721;SDS011;32455;43.430;23.136;2023-06-14T09:26:07;3.25;;;2.65;;
46721;SDS011;32455;43.430;23.136;2023-06-14T09:29:00;4.78;;;3.25;;
46721;SDS011;32455;43.430;23.136;2023-06-14T09:31:48;6.32;;;2.80;;
46721;SDS011;32455;43.430;23.136;2023-06-14T09:34:34;3.20;;;2.90;;
46721;SDS011;32455;43.430;23.136;2023-06-14T09:37:27;3.42;;;2.90;;
46721;SDS011;32455;43.430;23.136;2023-06-14T09:40:16;2.72;;;2.53;;
46721;SDS011;32455;43.430;23.136;2023-06-14T09:43:06;2.63;;;2.42;;
46721;SDS011;32455;43.430;23.136;2023-06-14T09:45:55;2.60;;;2.40;;
46721;SDS011;32455;43.430;23.136;2023-06-14T09:48:40;4.07;;;2.97;;
46721;SDS011;32455;43.430;23.136;2023-06-14T09:51:27;4.65;;;2.83;;
46721;SDS011;32455;43.430;23.136;2023-06-14T09:54:15;6.10;;;2.90;;
46721;SDS011;32455;43.430;23.136;2023-06-14T09:57:06;3.30;;;3.00;;
46721;SDS011;32455;43.430;23.136;2023-06-14T09:59:57;3.40;;;3.10;;
46721;SDS011;32455;43.430;23.136;2023-06-14T10:02:45;5.05;;;3.92;;
46721;SDS011;32455;43.430;23.136;2023-06-14T10:05:36;9.27;;;2.97;;
46721;SDS011;32455;43.430;23.136;2023-06-14T10:08:24;3.08;;;2.80;;
46721;SDS011;32455;43.430;23.136;2023-06-14T10:11:12;3.35;;;3.05;;
46721;SDS011;32455;43.430;23.136;2023-06-14T10:13:58;2.88;;;2.50;;
46721;SDS011;32455;43.430;23.136;2023-06-14T10:19:55;3.35;;;3.05;;
46721;SDS011;32455;43.430;23.136;2023-06-14T10:23:01;3.25;;;2.95;;
46721;SDS011;32455;43.430;23.136;2023-06-14T10:25:59;4.10;;;2.70;;
46721;SDS011;32455;43.430;23.136;2023-06-14T10:28:54;3.15;;;2.85;;
46721;SDS011;32455;43.430;23.136;2023-06-14T10:31:48;5.63;;;3.28;;
46721;SDS011;32455;43.430;23.136;2023-06-14T10:34:38;3.55;;;3.17;;
46721;SDS011;32455;43.430;23.136;2023-06-14T10:37:23;3.28;;;2.92;;
46721;SDS011;32455;43.430;23.136;2023-06-14T10:40:16;3.35;;;2.83;;
46721;SDS011;32455;43.430;23.136;2023-06-14T10:43:22;3.55;;;3.08;;
46721;SDS011;32455;43.430;23.136;2023-06-14T10:46:15;2.60;;;2.40;;
46721;SDS011;32455;43.430;23.136;2023-06-14T10:49:02;4.20;;;2.78;;
46721;SDS011;32455;43.430;23.136;2023-06-14T10:51:51;7.38;;;2.90;;
46721;SDS011;32455;43.430;23.136;2023-06-14T10:54:38;2.70;;;2.50;;
46721;SDS011;32455;43.430;23.136;2023-06-14T10:57:23;3.58;;;2.70;;
46721;SDS011;32455;43.430;23.136;2023-06-14T11:00:09;2.90;;;2.60;;
46721;SDS011;32455;43.430;23.136;2023-06-14T11:03:15;2.60;;;2.40;;
46721;SDS011;32455;43.430;23.136;2023-06-14T11:06:46;2.50;;;2.30;;
46721;SDS011;32455;43.430;23.136;2023-06-14T11:12:48;3.10;;;2.80;;
46721;SDS011;32455;43.430;23.136;2023-06-14T11:15:34;6.53;;;3.25;;
46721;SDS011;32455;43.430;23.136;2023-06-14T11:18:21;3.00;;;2.70;;
46721;SDS011;32455;43.430;23.136;2023-06-14T11:21:20;4.57;;;2.85;;
46721;SDS011;32455;43.430;23.136;2023-06-14T11:24:10;3.60;;;3.17;;
46721;SDS011;32455;43.430;23.136;2023-06-14T11:26:56;4.97;;;3.35;;
46721;SDS011;32455;43.430;23.136;2023-06-14T11:29:50;4.18;;;3.00;;
46721;SDS011;32455;43.430;23.136;2023-06-14T11:32:38;3.25;;;2.60;;
46721;SDS011;32455;43.430;23.136;2023-06-14T11:35:24;3.95;;;2.92;;
46721;SDS011;32455;43.430;23.136;2023-06-14T11:38:10;3.33;;;3.03;;
46721;SDS011;32455;43.430;23.136;2023-06-14T11:40:59;4.45;;;3.08;;
46721;SDS011;32455;43.430;23.136;2023-06-14T11:43:45;3.03;;;2.65;;
46721;SDS011;32455;43.430;23.136;2023-06-14T11:46:30;2.80;;;2.50;;
46721;SDS011;32455;43.430;23.136;2023-06-14T11:49:16;3.55;;;3.25;;
46721;SDS011;32455;43.430;23.136;2023-06-14T11:52:01;4.57;;;3.40;;
46721;SDS011;32455;43.430;23.136;2023-06-14T11:54:47;3.42;;;3.03;;
46721;SDS011;32455;43.430;23.136;2023-06-14T11:57:36;3.85;;;2.97;;
46721;SDS011;32455;43.430;23.136;2023-06-14T12:00:26;5.13;;;3.53;;
46721;SDS011;32455;43.430;23.136;2023-06-14T12:03:12;5.22;;;2.65;;
46721;SDS011;32455;43.430;23.136;2023-06-14T12:06:05;2.83;;;2.60;;
46721;SDS011;32455;43.430;23.136;2023-06-14T12:08:57;2.80;;;2.60;;
46721;SDS011;32455;43.430;23.136;2023-06-14T12:11:42;3.22;;;2.80;;
46721;SDS011;32455;43.430;23.136;2023-06-14T12:14:31;4.57;;;2.50;;
46721;SDS011;32455;43.430;23.136;2023-06-14T12:17:16;3.58;;;3.00;;
46721;SDS011;32455;43.430;23.136;2023-06-14T12:20:06;3.33;;;2.88;;
46721;SDS011;32455;43.430;23.136;2023-06-14T12:22:55;4.57;;;3.20;;
46721;SDS011;32455;43.430;23.136;2023-06-14T12:25:43;3.40;;;2.95;;
46721;SDS011;32455;43.430;23.136;2023-06-14T12:28:31;3.00;;;2.70;;
46721;SDS011;32455;43.430;23.136;2023-06-14T12:31:17;3.53;;;2.75;;
46721;SDS011;32455;43.430;23.136;2023-06-14T12:34:03;4.72;;;2.97;;
46721;SDS011;32455;43.430;23.136;2023-06-14T12:36:51;2.80;;;2.58;;
46721;SDS011;32455;43.430;23.136;2023-06-14T12:39:38;3.15;;;2.60;;
46721;SDS011;32455;43.430;23.136;2023-06-14T12:42:24;3.08;;;2.70;;
46721;SDS011;32455;43.430;23.136;2023-06-14T12:45:09;3.45;;;3.00;;
46721;SDS011;32455;43.430;23.136;2023-06-14T12:47:55;3.05;;;2.67;;
46721;SDS011;32455;43.430;23.136;2023-06-14T12:50:41;2.70;;;2.50;;
46721;SDS011;32455;43.430;23.136;2023-06-14T12:53:26;2.85;;;2.65;;
46721;SDS011;32455;43.430;23.136;2023-06-14T12:56:12;2.80;;;2.60;;
46721;SDS011;32455;43.430;23.136;2023-06-14T12:58:57;2.40;;;2.20;;
46721;SDS011;32455;43.430;23.136;2023-06-14T13:01:44;4.00;;;2.50;;
46721;SDS011;32455;43.430;23.136;2023-06-14T13:04:35;2.95;;;2.75;;
46721;SDS011;32455;43.430;23.136;2023-06-14T13:07:21;2.75;;;2.40;;
46721;SDS011;32455;43.430;23.136;2023-06-14T13:10:07;3.83;;;2.30;;
46721;SDS011;32455;43.430;23.136;2023-06-14T13:12:52;4.57;;;2.78;;
46721;SDS011;32455;43.430;23.136;2023-06-14T13:15:36;3.05;;;2.60;;
46721;SDS011;32455;43.430;23.136;2023-06-14T13:18:22;4.30;;;2.58;;
46721;SDS011;32455;43.430;23.136;2023-06-14T13:21:08;4.55;;;2.33;;
46721;SDS011;32455;43.430;23.136;2023-06-14T13:23:53;4.75;;;2.85;;
46721;SDS011;32455;43.430;23.136;2023-06-14T13:26:39;5.20;;;2.70;;
46721;SDS011;32455;43.430;23.136;2023-06-14T13:29:24;3.17;;;2.88;;
46721;SDS011;32455;43.430;23.136;2023-06-14T13:32:11;2.97;;;2.60;;
46721;SDS011;32455;43.430;23.136;2023-06-14T13:34:56;3.50;;;3.20;;
46721;SDS011;32455;43.430;23.136;2023-06-14T13:37:42;4.90;;;2.83;;
46721;SDS011;32455;43.430;23.136;2023-06-14T13:40:27;3.38;;;3.08;;
46721;SDS011;32455;43.430;23.136;2023-06-14T13:43:13;3.83;;;3.53;;
46721;SDS011;32455;43.430;23.136;2023-06-14T13:45:58;4.32;;;3.50;;
46721;SDS011;32455;43.430;23.136;2023-06-14T13:48:43;5.35;;;3.28;;
46721;SDS011;32455;43.430;23.136;2023-06-14T13:51:31;3.40;;;3.10;;
46721;SDS011;32455;43.430;23.136;2023-06-14T13:54:20;5.13;;;3.50;;
46721;SDS011;32455;43.430;23.136;2023-06-14T13:57:06;4.00;;;3.60;;
46721;SDS011;32455;43.430;23.136;2023-06-14T13:59:51;4.30;;;3.78;;
46721;SDS011;32455;43.430;23.136;2023-06-14T14:02:40;4.13;;;3.33;;
46721;SDS011;32455;43.430;23.136;2023-06-14T14:05:25;3.63;;;3.15;;
46721;SDS011;32455;43.430;23.136;2023-06-14T14:08:13;5.07;;;2.90;;
46721;SDS011;32455;43.430;23.136;2023-06-14T14:10:59;3.20;;;2.75;;
46721;SDS011;32455;43.430;23.136;2023-06-14T14:13:45;4.80;;;3.17;;
46721;SDS011;32455;43.430;23.136;2023-06-14T14:16:31;5.95;;;3.25;;
46721;SDS011;32455;43.430;23.136;2023-06-14T14:19:17;3.22;;;2.92;;
46721;SDS011;32455;43.430;23.136;2023-06-14T14:22:06;3.55;;;2.67;;
46721;SDS011;32455;43.430;23.136;2023-06-14T14:24:51;3.25;;;2.95;;
46721;SDS011;32455;43.430;23.136;2023-06-14T14:27:37;4.00;;;2.75;;
46721;SDS011;32455;43.430;23.136;2023-06-14T14:30:22;2.85;;;2.65;;
46721;SDS011;32455;43.430;23.136;2023-06-14T14:33:08;3.40;;;3.00;;
46721;SDS011;32455;43.430;23.136;2023-06-14T14:35:56;3.95;;;2.60;;
46721;SDS011;32455;43.430;23.136;2023-06-14T14:38:41;3.50;;;3.20;;
46721;SDS011;32455;43.430;23.136;2023-06-14T14:41:27;4.00;;;3.28;;
46721;SDS011;32455;43.430;23.136;2023-06-14T14:44:12;4.75;;;3.28;;
46721;SDS011;32455;43.430;23.136;2023-06-14T14:46:58;4.60;;;3.17;;
46721;SDS011;32455;43.430;23.136;2023-06-14T14:49:43;3.58;;;3.15;;
46721;SDS011;32455;43.430;23.136;2023-06-14T14:52:28;4.78;;;3.17;;
46721;SDS011;32455;43.430;23.136;2023-06-14T14:55:14;3.92;;;3.60;;
46721;SDS011;32455;43.430;23.136;2023-06-14T14:57:59;4.88;;;3.50;;
46721;SDS011;32455;43.430;23.136;2023-06-14T15:00:45;3.45;;;3.15;;
46721;SDS011;32455;43.430;23.136;2023-06-14T15:03:30;3.95;;;3.55;;
46721;SDS011;32455;43.430;23.136;2023-06-14T15:06:15;4.75;;;3.70;;
46721;SDS011;32455;43.430;23.136;2023-06-14T15:09:02;4.38;;;3.10;;
46721;SDS011;32455;43.430;23.136;2023-06-14T15:11:47;4.40;;;3.22;;
46721;SDS011;32455;43.430;23.136;2023-06-14T15:14:33;3.35;;;2.97;;
46721;SDS011;32455;43.430;23.136;2023-06-14T15:17:21;2.97;;;2.75;;
46721;SDS011;32455;43.430;23.136;2023-06-14T15:20:08;3.47;;;3.10;;
46721;SDS011;32455;43.430;23.136;2023-06-14T15:22:54;3.97;;;3.60;;
46721;SDS011;32455;43.430;23.136;2023-06-14T15:25:45;4.70;;;3.28;;
46721;SDS011;32455;43.430;23.136;2023-06-14T15:28:34;4.45;;;3.28;;
46721;SDS011;32455;43.430;23.136;2023-06-14T15:31:19;3.80;;;3.50;;
46721;SDS011;32455;43.430;23.136;2023-06-14T15:34:05;4.30;;;3.15;;
46721;SDS011;32455;43.430;23.136;2023-06-14T15:36:51;3.80;;;3.38;;
46721;SDS011;32455;43.430;23.136;2023-06-14T15:39:36;3.60;;;3.20;;
46721;SDS011;32455;43.430;23.136;2023-06-14T15:42:22;3.75;;;3.35;;
46721;SDS011;32455;43.430;23.136;2023-06-14T15:45:07;3.88;;;3.47;;
46721;SDS011;32455;43.430;23.136;2023-06-14T15:47:52;3.83;;;3.40;;
46721;SDS011;32455;43.430;23.136;2023-06-14T15:50:38;3.72;;;3.42;;
46721;SDS011;32455;43.430;23.136;2023-06-14T15:53:23;4.38;;;3.42;;
46721;SDS011;32455;43.430;23.136;2023-06-14T15:56:08;3.30;;;3.00;;
46721;SDS011;32455;43.430;23.136;2023-06-14T15:58:53;3.33;;;3.03;;
46721;SDS011;32455;43.430;23.136;2023-06-14T16:01:39;6.25;;;2.92;;
46721;SDS011;32455;43.430;23.136;2023-06-14T16:04:24;3.17;;;2.88;;
46721;SDS011;32455;43.430;23.136;2023-06-14T16:07:10;3.45;;;3.10;;
46721;SDS011;32455;43.430;23.136;2023-06-14T16:09:57;4.53;;;3.15;;
46721;SDS011;32455;43.430;23.136;2023-06-14T16:12:42;3.13;;;2.83;;
46721;SDS011;32455;43.430;23.136;2023-06-14T16:15:27;3.88;;;3.42;;
46721;SDS011;32455;43.430;23.136;2023-06-14T16:18:13;5.05;;;3.45;;
46721;SDS011;32455;43.430;23.136;2023-06-14T16:20:58;4.85;;;3.40;;
46721;SDS011;32455;43.430;23.136;2023-06-14T16:23:43;5.15;;;3.35;;
46721;SDS011;32455;43.430;23.136;2023-06-14T16:26:28;4.38;;;3.60;;
46721;SDS011;32455;43.430;23.136;2023-06-14T16:29:14;5.70;;;4.00;;
46721;SDS011;32455;43.430;23.136;2023-06-14T16:32:00;3.72;;;3.08;;
46721;SDS011;32455;43.430;23.136;2023-06-14T16:34:45;3.70;;;3.40;;
46721;SDS011;32455;43.430;23.136;2023-06-14T16:37:30;3.80;;;3.50;;